Time;durP1;ratioP1;P1;durP2;ratioP2;P2;SDS_P1;SDS_P2;PMS_P1;PMS_P2;Temp;Humidity;BMP_temperature;BMP_pressure;BME280_temperature;BME280_humidity;BME280_pressure;Samples;Min_cycle;Max_cycle;Signal;HPM_P1;HPM_P2
2023/06/10 00:01:59;;;;;;;6.97;3.75;;;24.90;60.50;;;;;;5096258;28;20101;-76
2023/06/10 00:04:27;;;;;;;5.90;4.07;;;24.80;60.60;;;;;;5097062;28;20032;-77
2023/06/10 00:06:53;;;;;;;5.00;3.95;;;24.80;60.60;;;;;;5096767;28;20370;-76
2023/06/10 00:09:20;;;;;;;7.68;4.60;;;24.70;60.60;;;;;;5095412;28;20162;-76
2023/06/10 00:11:46;;;;;;;5.57;3.97;;;24.60;60.70;;;;;;5096691;28;20044;-76
2023/06/10 00:14:12;;;;;;;5.53;3.90;;;24.60;60.80;;;;;;5095613;28;20024;-77
2023/06/10 00:16:38;;;;;;;5.15;3.80;;;24.50;60.60;;;;;;5096758;28;20468;-77
2023/06/10 00:19:05;;;;;;;4.40;3.58;;;24.50;60.80;;;;;;5095587;28;20042;-77
2023/06/10 00:21:39;;;;;;;5.07;3.65;;;24.40;60.70;;;;;;5096828;28;20059;-77
2023/06/10 00:24:11;;;;;;;5.28;3.50;;;24.40;60.30;;;;;;5096071;28;20028;-78
2023/06/10 00:26:41;;;;;;;6.55;4.03;;;24.50;60.20;;;;;;5095837;28;20452;-78
2023/06/10 00:29:07;;;;;;;4.95;4.25;;;24.40;59.90;;;;;;5095861;28;20364;-77
2023/06/10 00:31:37;;;;;;;5.95;3.67;;;24.30;59.80;;;;;;5096433;28;20032;-78
2023/06/10 00:34:03;;;;;;;6.13;4.35;;;24.30;60.20;;;;;;5095579;28;20028;-78
2023/06/10 00:36:29;;;;;;;6.38;4.13;;;24.20;59.60;;;;;;5096462;28;20473;-78
2023/06/10 00:38:55;;;;;;;5.38;3.85;;;24.20;59.70;;;;;;5096387;28;20024;-78
2023/06/10 00:41:21;;;;;;;4.95;3.63;;;24.20;59.50;;;;;;5096268;28;20040;-77
2023/06/10 00:43:46;;;;;;;6.20;4.03;;;24.10;59.50;;;;;;5096824;28;20349;-78
2023/06/10 00:46:13;;;;;;;5.40;3.92;;;24.10;59.50;;;;;;5095036;28;20089;-78
2023/06/10 00:48:40;;;;;;;4.65;3.65;;;24.00;59.40;;;;;;5095287;28;20036;-78
2023/06/10 00:51:08;;;;;;;5.13;4.13;;;23.90;59.70;;;;;;5096203;28;20040;-80
2023/06/10 00:53:36;;;;;;;4.25;3.85;;;23.90;59.70;;;;;;5095860;28;20032;-81
2023/06/10 00:56:03;;;;;;;4.55;3.58;;;23.80;59.80;;;;;;5095726;28;20147;-80
2023/06/10 00:58:28;;;;;;;6.35;4.20;;;23.80;59.70;;;;;;5095678;28;20177;-80
2023/06/10 01:00:54;;;;;;;5.90;3.47;;;23.80;59.60;;;;;;5095804;28;20515;-80
2023/06/10 01:03:20;;;;;;;6.10;4.07;;;23.80;59.40;;;;;;5095536;28;20043;-80
2023/06/10 01:06:14;;;;;;;5.93;3.97;;;23.80;59.30;;;;;;5078328;28;20404;-80
2023/06/10 01:09:00;;;;;;;7.35;4.05;;;23.80;59.20;;;;;;5096140;28;20024;-80
2023/06/10 01:11:34;;;;;;;8.10;4.00;;;23.90;59.10;;;;;;5095899;28;20039;-81
2023/06/10 01:14:01;;;;;;;6.88;4.13;;;23.90;59.00;;;;;;5095829;28;20472;-80
2023/06/10 01:16:28;;;;;;;4.97;3.75;;;23.80;59.00;;;;;;5094517;28;20039;-80
2023/06/10 01:18:54;;;;;;;6.47;3.95;;;23.70;59.20;;;;;;5095671;28;20070;-80
2023/06/10 01:21:24;;;;;;;5.88;3.80;;;23.60;59.30;;;;;;5094313;28;20036;-80
2023/06/10 01:23:52;;;;;;;5.10;3.78;;;23.60;59.60;;;;;;5096137;28;20073;-80
2023/06/10 01:26:20;;;;;;;5.95;3.42;;;23.60;59.40;;;;;;5095506;28;20047;-80
2023/06/10 01:28:57;;;;;;;6.95;3.90;;;23.60;59.50;;;;;;5095422;28;20035;-80
2023/06/10 01:31:45;;;;;;;6.90;3.88;;;23.60;59.30;;;;;;5095386;28;20035;-80
2023/06/10 01:34:16;;;;;;;5.80;3.80;;;23.40;59.70;;;;;;5094061;28;20119;-80
2023/06/10 01:36:47;;;;;;;4.53;3.30;;;23.40;59.70;;;;;;5095589;28;20476;-80
2023/06/10 01:39:14;;;;;;;7.65;4.18;;;23.40;59.90;;;;;;5095583;28;20032;-80
2023/06/10 01:41:40;;;;;;;6.10;3.78;;;23.40;59.80;;;;;;5095102;28;20058;-80
2023/06/10 01:44:06;;;;;;;9.30;3.63;;;23.30;60.00;;;;;;5093890;28;20523;-80
2023/06/10 01:46:31;;;;;;;4.68;3.83;;;23.30;60.20;;;;;;5094308;28;20054;-80
2023/06/10 01:48:57;;;;;;;6.05;4.07;;;23.30;60.10;;;;;;5095034;28;20468;-80
2023/06/10 01:51:23;;;;;;;6.88;4.50;;;23.30;60.10;;;;;;5094980;28;20036;-80
2023/06/10 01:53:48;;;;;;;5.95;3.67;;;23.30;60.10;;;;;;5093287;28;20052;-80
2023/06/10 01:56:19;;;;;;;6.97;3.75;;;23.20;60.20;;;;;;5095250;28;20078;-80
2023/06/10 01:58:45;;;;;;;5.50;4.07;;;23.30;60.40;;;;;;5094917;28;20456;-80
2023/06/10 02:01:11;;;;;;;6.22;3.90;;;23.20;60.30;;;;;;5094695;28;20035;-80
2023/06/10 02:03:37;;;;;;;7.45;3.53;;;23.10;60.70;;;;;;5094797;28;20028;-80
2023/06/10 02:06:02;;;;;;;8.07;3.78;;;23.00;60.90;;;;;;5093507;28;20053;-81
2023/06/10 02:08:28;;;;;;;7.22;3.80;;;22.90;61.20;;;;;;5093494;28;20081;-81
2023/06/10 02:10:54;;;;;;;6.70;3.60;;;22.80;61.50;;;;;;5093419;28;20050;-80
2023/06/10 02:13:19;;;;;;;6.65;4.15;;;22.80;61.80;;;;;;5093132;28;20032;-80
2023/06/10 02:15:45;;;;;;;7.93;4.47;;;22.80;61.70;;;;;;5094046;28;20035;-80
2023/06/10 02:18:11;;;;;;;5.72;4.00;;;22.90;61.70;;;;;;5094287;28;20036;-80
2023/06/10 02:20:40;;;;;;;5.43;3.60;;;22.90;61.80;;;;;;5093514;28;20028;-80
2023/06/10 02:23:05;;;;;;;6.63;3.58;;;22.90;62.10;;;;;;5094401;28;20467;-80
2023/06/10 02:25:31;;;;;;;5.72;3.30;;;22.90;62.10;;;;;;5077067;28;20101;-80
2023/06/10 02:27:57;;;;;;;6.78;3.80;;;22.80;62.30;;;;;;5094315;28;20024;-80
2023/06/10 02:30:22;;;;;;;9.02;4.03;;;22.80;62.50;;;;;;5094537;28;20036;-80
2023/06/10 02:32:48;;;;;;;8.10;3.90;;;22.80;62.60;;;;;;5092981;28;20024;-80
2023/06/10 02:35:17;;;;;;;8.95;4.25;;;22.70;63.10;;;;;;5093014;28;20032;-80
2023/06/10 02:37:43;;;;;;;6.68;4.35;;;22.60;63.40;;;;;;5093967;28;20114;-80
2023/06/10 02:40:10;;;;;;;9.40;4.70;;;22.60;63.50;;;;;;5092499;28;20081;-80
2023/06/10 02:42:36;;;;;;;8.10;3.90;;;22.70;63.80;;;;;;5094051;28;20044;-80
2023/06/10 02:45:02;;;;;;;8.02;3.92;;;22.60;64.00;;;;;;5093829;28;20557;-80
2023/06/10 02:47:28;;;;;;;7.28;4.10;;;22.50;64.00;;;;;;5076001;28;20480;-80
2023/06/10 02:49:53;;;;;;;7.15;4.32;;;22.60;64.30;;;;;;5094289;28;20032;-80
2023/06/10 02:52:20;;;;;;;10.07;4.50;;;22.50;64.40;;;;;;5093725;28;20121;-80
2023/06/10 02:54:46;;;;;;;7.00;4.10;;;22.50;64.30;;;;;;5093184;28;20051;-80
2023/06/10 02:57:11;;;;;;;6.80;4.07;;;22.50;64.50;;;;;;5093045;28;20032;-80
2023/06/10 02:59:37;;;;;;;6.95;4.22;;;22.40;64.60;;;;;;5092649;28;20024;-80
2023/06/10 03:02:03;;;;;;;11.45;3.97;;;22.50;64.90;;;;;;5092417;28;20470;-80
2023/06/10 03:04:30;;;;;;;7.85;4.20;;;22.50;64.80;;;;;;5075864;28;20024;-80
2023/06/10 03:06:56;;;;;;;6.97;4.45;;;22.50;64.90;;;;;;5093891;28;20024;-80
2023/06/10 03:09:22;;;;;;;5.05;3.60;;;22.30;65.20;;;;;;5075791;28;20077;-80
2023/06/10 03:11:47;;;;;;;8.20;4.30;;;22.20;65.50;;;;;;5093826;28;20036;-80
2023/06/10 03:14:13;;;;;;;5.65;3.78;;;22.30;65.60;;;;;;5093487;28;20024;-80
2023/06/10 03:16:42;;;;;;;6.00;4.13;;;22.30;65.50;;;;;;5075908;28;20028;-80
2023/06/10 03:19:08;;;;;;;6.05;4.13;;;22.30;65.50;;;;;;5092339;28;20024;-81
2023/06/10 03:21:37;;;;;;;7.93;4.07;;;22.30;65.70;;;;;;5092294;28;20036;-80
2023/06/10 03:24:03;;;;;;;6.88;3.90;;;22.20;65.70;;;;;;5093333;28;20506;-80
2023/06/10 03:26:29;;;;;;;8.20;4.55;;;22.20;66.00;;;;;;5078215;28;20380;-80
2023/06/10 03:28:55;;;;;;;6.85;3.80;;;22.20;66.10;;;;;;5080170;28;20032;-79
2023/06/10 03:31:20;;;;;;;6.53;4.63;;;22.20;66.10;;;;;;5096480;28;20028;-80
2023/06/10 03:33:46;;;;;;;6.30;3.75;;;22.20;66.20;;;;;;5096699;28;20024;-80
2023/06/10 03:36:12;;;;;;;8.05;4.07;;;22.10;66.50;;;;;;5079706;28;20028;-80
2023/06/10 03:38:38;;;;;;;8.00;4.65;;;22.10;66.50;;;;;;5096428;28;20048;-80
2023/06/10 03:41:03;;;;;;;8.98;3.88;;;22.00;66.60;;;;;;5096042;28;20086;-81
2023/06/10 03:43:31;;;;;;;7.90;4.07;;;22.00;66.90;;;;;;5098190;28;20024;-80
2023/06/10 03:45:56;;;;;;;11.57;4.18;;;21.90;67.30;;;;;;5096427;28;20032;-80
2023/06/10 03:48:22;;;;;;;6.63;4.10;;;21.90;67.40;;;;;;5096135;28;20449;-80
2023/06/10 03:50:50;;;;;;;7.00;4.20;;;21.80;67.40;;;;;;5096133;28;20040;-80
2023/06/10 03:53:16;;;;;;;8.68;4.40;;;21.90;67.50;;;;;;5095970;28;20032;-80
2023/06/10 03:55:42;;;;;;;9.60;4.20;;;21.90;67.30;;;;;;5096333;28;20125;-80
2023/06/10 03:58:08;;;;;;;6.72;4.30;;;21.90;67.50;;;;;;5095903;28;20024;-80
2023/06/10 04:00:41;;;;;;;7.30;4.10;;;21.80;67.60;;;;;;5097009;28;20024;-80
2023/06/10 04:03:08;;;;;;;7.78;3.88;;;21.80;67.50;;;;;;5097186;28;20024;-80
2023/06/10 04:05:35;;;;;;;9.07;4.50;;;21.80;67.80;;;;;;5096206;28;20021;-80
2023/06/10 04:08:01;;;;;;;7.63;3.53;;;21.60;68.20;;;;;;5079457;28;20029;-80
2023/06/10 04:10:27;;;;;;;7.15;4.25;;;21.40;68.90;;;;;;5095837;28;20028;-80
2023/06/10 04:12:52;;;;;;;7.20;4.40;;;21.40;69.00;;;;;;5095808;28;20380;-80
2023/06/10 04:15:18;;;;;;;7.40;4.68;;;21.40;68.90;;;;;;5095378;28;20036;-80
2023/06/10 04:17:44;;;;;;;8.27;4.25;;;21.40;69.10;;;;;;5078661;28;20039;-80
2023/06/10 04:20:10;;;;;;;6.53;4.00;;;21.40;69.10;;;;;;5095962;28;20024;-80
2023/06/10 04:22:36;;;;;;;5.57;3.60;;;21.50;68.90;;;;;;5095402;28;20450;-80
2023/06/10 04:25:02;;;;;;;7.03;4.47;;;21.50;68.90;;;;;;5095420;28;20060;-80
2023/06/10 04:27:28;;;;;;;5.63;4.07;;;21.60;68.60;;;;;;5095468;28;20020;-80
2023/06/10 04:29:54;;;;;;;6.90;3.90;;;21.70;68.60;;;;;;5078717;28;20032;-80
2023/06/10 04:32:19;;;;;;;9.30;3.83;;;21.70;68.60;;;;;;5095382;28;20028;-79
2023/06/10 04:34:45;;;;;;;5.85;3.88;;;21.80;68.60;;;;;;5095368;28;20064;-80
2023/06/10 04:37:11;;;;;;;8.35;4.38;;;21.80;68.60;;;;;;5095368;28;20115;-80
2023/06/10 04:39:36;;;;;;;12.15;4.60;;;21.70;68.70;;;;;;5095282;28;20028;-80
2023/06/10 04:42:02;;;;;;;6.25;3.75;;;21.60;68.90;;;;;;5096332;28;20477;-80
2023/06/10 04:44:29;;;;;;;10.20;5.10;;;21.60;69.10;;;;;;5095480;28;20081;-80
2023/06/10 04:46:55;;;;;;;6.55;4.18;;;21.60;69.30;;;;;;5079100;28;20078;-80
2023/06/10 04:49:21;;;;;;;9.80;4.35;;;21.50;69.70;;;;;;5095993;28;20051;-81
2023/06/10 04:51:46;;;;;;;6.47;4.18;;;21.30;70.40;;;;;;5094805;28;20465;-80
2023/06/10 04:54:12;;;;;;;8.63;4.35;;;21.30;70.40;;;;;;5094770;28;20122;-80
2023/06/10 04:56:39;;;;;;;8.77;4.50;;;21.30;70.40;;;;;;5095682;28;20413;-79
2023/06/10 04:59:05;;;;;;;11.13;4.53;;;21.30;70.50;;;;;;5096156;28;20032;-80
2023/06/10 05:01:30;;;;;;;7.80;4.63;;;21.20;71.00;;;;;;5095852;28;20119;-81
2023/06/10 05:03:56;;;;;;;6.90;3.97;;;21.30;70.70;;;;;;5096001;28;20122;-83
2023/06/10 05:06:22;;;;;;;8.18;4.22;;;21.40;70.70;;;;;;5095653;28;20036;-84
2023/06/10 05:08:47;;;;;;;6.80;3.88;;;21.40;70.20;;;;;;5094423;28;20052;-84
2023/06/10 05:11:13;;;;;;;8.60;4.40;;;21.50;70.10;;;;;;5094309;28;20081;-84
2023/06/10 05:13:40;;;;;;;14.07;4.82;;;21.50;70.20;;;;;;5078240;28;20032;-84
2023/06/10 05:16:06;;;;;;;8.40;4.20;;;21.60;70.20;;;;;;5094900;28;20036;-83
2023/06/10 05:18:32;;;;;;;8.82;4.90;;;21.50;70.20;;;;;;5094581;28;20028;-83
2023/06/10 05:20:57;;;;;;;8.43;3.92;;;21.50;70.20;;;;;;5095426;28;20032;-84
2023/06/10 05:23:23;;;;;;;6.00;3.70;;;21.60;70.10;;;;;;5094514;28;20145;-83
2023/06/10 05:25:48;;;;;;;7.97;3.70;;;21.70;70.00;;;;;;5077778;28;20329;-83
2023/06/10 05:28:14;;;;;;;6.63;4.30;;;21.70;70.00;;;;;;5077700;28;20024;-84
2023/06/10 05:30:40;;;;;;;7.95;3.88;;;21.80;69.80;;;;;;5094132;28;20036;-84
2023/06/10 05:33:05;;;;;;;7.45;4.22;;;21.80;69.60;;;;;;5077552;28;20032;-83
2023/06/10 05:35:31;;;;;;;8.10;4.03;;;21.80;69.70;;;;;;5095046;28;20024;-84
2023/06/10 05:37:57;;;;;;;6.88;4.13;;;21.80;69.60;;;;;;5093930;28;20028;-83
2023/06/10 05:40:23;;;;;;;7.90;4.43;;;21.80;69.70;;;;;;5093797;28;20078;-83
2023/06/10 05:42:49;;;;;;;6.50;4.43;;;21.80;69.30;;;;;;5094915;28;20445;-83
2023/06/10 05:45:15;;;;;;;7.32;4.28;;;21.80;69.70;;;;;;5077095;28;20032;-83
2023/06/10 05:47:41;;;;;;;9.05;4.47;;;21.90;69.50;;;;;;5093767;28;20472;-83
2023/06/10 05:50:08;;;;;;;7.13;4.13;;;21.90;69.70;;;;;;5094635;28;20046;-83
2023/06/10 05:52:34;;;;;;;5.72;4.03;;;21.90;69.60;;;;;;5094860;28;20081;-83
2023/06/10 05:55:03;;;;;;;9.23;4.70;;;21.90;69.60;;;;;;5093152;28;20102;-83
2023/06/10 05:57:28;;;;;;;8.57;3.78;;;21.90;69.40;;;;;;5093604;28;20431;-84
2023/06/10 05:59:54;;;;;;;6.68;3.95;;;21.80;69.50;;;;;;5094248;28;20032;-83
2023/06/10 06:02:19;;;;;;;7.20;3.80;;;21.80;69.50;;;;;;5093506;28;20028;-83
2023/06/10 06:04:45;;;;;;;8.60;4.15;;;21.90;69.50;;;;;;5094565;28;20034;-83
2023/06/10 06:07:11;;;;;;;6.97;3.85;;;22.00;69.60;;;;;;5077101;28;20024;-83
2023/06/10 06:09:37;;;;;;;8.85;3.95;;;22.00;69.40;;;;;;5093889;28;20526;-83
2023/06/10 06:12:03;;;;;;;9.25;4.13;;;22.10;69.00;;;;;;5093229;28;20522;-83
2023/06/10 06:14:31;;;;;;;7.72;3.65;;;22.30;68.70;;;;;;5093858;28;20456;-81
2023/06/10 06:16:57;;;;;;;6.53;3.70;;;22.30;68.00;;;;;;5093128;28;20024;-83
2023/06/10 06:19:22;;;;;;;5.75;3.70;;;22.40;68.10;;;;;;5094266;28;20036;-83
2023/06/10 06:21:48;;;;;;;5.20;3.45;;;22.50;68.10;;;;;;5076278;28;20416;-83
2023/06/10 06:24:15;;;;;;;4.70;3.42;;;22.50;68.00;;;;;;5093126;28;20506;-82
2023/06/10 06:26:41;;;;;;;6.13;3.92;;;22.70;67.70;;;;;;5094140;28;20431;-83
2023/06/10 06:29:06;;;;;;;7.60;3.95;;;22.80;67.20;;;;;;5076311;28;20036;-83
2023/06/10 06:31:32;;;;;;;6.25;3.85;;;22.90;66.80;;;;;;5093461;28;20035;-83
2023/06/10 06:33:58;;;;;;;6.32;3.40;;;22.90;66.80;;;;;;5094292;28;20448;-83
2023/06/10 06:36:24;;;;;;;8.73;4.07;;;22.90;66.70;;;;;;5093303;28;20376;-82
2023/06/10 06:38:49;;;;;;;5.72;4.00;;;23.00;66.70;;;;;;5094202;28;20449;-83
2023/06/10 06:41:15;;;;;;;5.60;3.42;;;23.20;67.00;;;;;;5092701;28;20059;-83
2023/06/10 06:43:42;;;;;;;9.70;4.20;;;23.20;66.70;;;;;;5093804;28;20081;-83
2023/06/10 06:46:07;;;;;;;8.55;4.20;;;23.20;66.70;;;;;;5094128;28;20062;-84
2023/06/10 06:48:33;;;;;;;6.80;3.75;;;23.20;66.50;;;;;;5094071;28;20056;-83
2023/06/10 06:50:59;;;;;;;8.55;4.18;;;23.20;66.40;;;;;;5092574;28;20032;-83
2023/06/10 06:53:25;;;;;;;7.43;3.55;;;23.20;66.40;;;;;;5093594;28;20081;-81
2023/06/10 06:55:50;;;;;;;8.00;3.67;;;23.30;66.20;;;;;;5093849;28;20419;-83
2023/06/10 06:58:16;;;;;;;10.98;4.35;;;23.30;66.30;;;;;;5093910;28;20060;-83
2023/06/10 07:00:42;;;;;;;6.80;3.63;;;23.50;66.20;;;;;;5075919;28;20334;-83
2023/06/10 07:03:07;;;;;;;7.43;3.60;;;23.50;66.20;;;;;;5092445;28;20024;-83
2023/06/10 07:05:33;;;;;;;6.32;3.88;;;23.60;66.10;;;;;;5093856;28;20028;-83
2023/06/10 07:07:59;;;;;;;6.60;3.80;;;23.70;65.90;;;;;;5094137;28;20069;-83
2023/06/10 07:10:25;;;;;;;6.85;3.55;;;23.80;66.40;;;;;;5092896;28;20055;-83
2023/06/10 07:12:51;;;;;;;7.13;3.95;;;23.90;65.90;;;;;;5092763;28;20464;-83
2023/06/10 07:15:17;;;;;;;7.40;3.25;;;23.90;65.70;;;;;;5092865;28;20414;-83
2023/06/10 07:17:43;;;;;;;7.88;3.30;;;23.80;65.40;;;;;;5092815;28;20157;-83
2023/06/10 07:20:09;;;;;;;7.22;3.10;;;23.90;65.60;;;;;;5093418;28;20069;-83
2023/06/10 07:22:35;;;;;;;8.95;3.72;;;24.10;65.60;;;;;;5093568;28;20040;-83
2023/06/10 07:25:01;;;;;;;8.82;4.63;;;24.30;64.70;;;;;;5075980;28;20032;-83
2023/06/10 07:27:26;;;;;;;6.55;4.15;;;24.30;64.80;;;;;;5075170;28;20039;-83
2023/06/10 07:29:52;;;;;;;5.90;3.50;;;24.30;64.30;;;;;;5092455;28;20126;-83
2023/06/10 07:32:20;;;;;;;5.15;3.72;;;24.30;64.40;;;;;;5075975;28;20457;-83
2023/06/10 07:34:46;;;;;;;6.55;3.47;;;24.40;64.30;;;;;;5093542;28;20349;-83
2023/06/10 07:37:11;;;;;;;8.20;3.28;;;24.50;64.40;;;;;;5093573;28;20081;-83
2023/06/10 07:39:37;;;;;;;5.75;3.33;;;24.60;63.30;;;;;;5075539;28;20032;-83
2023/06/10 07:42:03;;;;;;;5.32;3.13;;;24.80;63.30;;;;;;5092136;28;20036;-82
2023/06/10 07:44:28;;;;;;;7.25;3.80;;;25.00;63.60;;;;;;5077062;28;20039;-82
2023/06/10 07:46:54;;;;;;;8.88;3.58;;;25.00;61.80;;;;;;5093399;28;20036;-83
2023/06/10 07:49:20;;;;;;;5.65;3.50;;;25.00;60.80;;;;;;5075608;28;20024;-83
2023/06/10 07:51:45;;;;;;;5.35;3.35;;;25.00;61.20;;;;;;5092194;28;20063;-83
2023/06/10 07:54:12;;;;;;;9.32;3.67;;;25.10;61.80;;;;;;5091845;28;20122;-83
2023/06/10 07:56:38;;;;;;;5.40;3.50;;;25.20;61.80;;;;;;5091920;28;20511;-83
2023/06/10 07:59:04;;;;;;;7.00;3.75;;;25.30;61.90;;;;;;5093006;28;20028;-83
2023/06/10 08:01:30;;;;;;;6.32;3.00;;;25.30;61.80;;;;;;5091980;28;20495;-83
2023/06/10 08:03:55;;;;;;;7.80;3.45;;;25.50;62.00;;;;;;5093630;28;20111;-83
2023/06/10 08:06:21;;;;;;;4.82;3.35;;;25.50;61.10;;;;;;5092080;28;20127;-83
2023/06/10 08:08:47;;;;;;;5.43;3.22;;;25.60;61.20;;;;;;5092402;28;20028;-83
2023/06/10 08:11:13;;;;;;;8.70;3.92;;;25.60;61.80;;;;;;5092231;28;20060;-82
2023/06/10 08:13:39;;;;;;;7.15;3.63;;;25.70;60.50;;;;;;5095504;28;20489;-82
2023/06/10 08:16:05;;;;;;;8.93;3.90;;;25.80;60.10;;;;;;5096820;28;20069;-83
2023/06/10 08:18:31;;;;;;;6.85;3.42;;;25.90;60.60;;;;;;5095781;28;20028;-83
2023/06/10 08:20:57;;;;;;;6.18;3.10;;;26.10;60.20;;;;;;5095345;28;20028;-84
2023/06/10 08:23:23;;;;;;;7.60;3.83;;;26.20;60.10;;;;;;5094909;28;20024;-83
2023/06/10 08:25:48;;;;;;;5.40;3.20;;;26.20;59.50;;;;;;5095540;28;20055;-83
2023/06/10 08:28:14;;;;;;;6.70;3.20;;;26.40;60.40;;;;;;5095698;28;20054;-83
2023/06/10 08:30:40;;;;;;;6.15;3.63;;;26.40;59.80;;;;;;5096542;28;20039;-83
2023/06/10 08:33:06;;;;;;;5.53;3.50;;;26.50;59.40;;;;;;5096204;28;20089;-83
2023/06/10 08:35:31;;;;;;;5.80;3.85;;;26.50;58.70;;;;;;5096538;28;20423;-82
2023/06/10 08:37:57;;;;;;;7.22;4.05;;;26.70;59.20;;;;;;5095389;28;20357;-83
2023/06/10 08:40:23;;;;;;;23.88;20.48;;;26.70;58.70;;;;;;5096450;28;20453;-83
2023/06/10 08:42:51;;;;;;;12.82;10.88;;;26.80;58.00;;;;;;5096216;28;20040;-83
2023/06/10 08:45:18;;;;;;;8.60;3.65;;;26.80;58.20;;;;;;5096593;28;20056;-83
2023/06/10 08:47:48;;;;;;;5.30;3.10;;;26.90;57.50;;;;;;5095985;28;20392;-83
2023/06/10 08:50:16;;;;;;;7.00;3.00;;;26.80;57.50;;;;;;5094710;28;20026;-83
2023/06/10 08:52:43;;;;;;;6.18;2.85;;;26.90;58.20;;;;;;5096348;28;20476;-82
2023/06/10 08:55:25;;;;;;;10.43;3.53;;;27.00;58.70;;;;;;5096446;28;20055;-83
2023/06/10 08:57:52;;;;;;;7.68;3.40;;;27.10;59.60;;;;;;5096221;28;20440;-83
2023/06/10 09:00:18;;;;;;;6.10;3.22;;;27.20;58.80;;;;;;5096023;28;20031;-83
2023/06/10 09:02:44;;;;;;;6.50;3.33;;;27.30;57.50;;;;;;5094793;28;20070;-83
2023/06/10 09:05:10;;;;;;;8.10;3.67;;;27.40;57.40;;;;;;5077888;28;20515;-83
2023/06/10 09:07:37;;;;;;;8.25;3.55;;;27.50;57.60;;;;;;5095572;28;20468;-83
2023/06/10 09:10:06;;;;;;;6.18;3.20;;;27.60;57.90;;;;;;5094519;28;20024;-83
2023/06/10 09:12:34;;;;;;;6.07;3.05;;;27.70;57.80;;;;;;5094508;28;20032;-83
2023/06/10 09:15:01;;;;;;;4.78;2.80;;;27.80;56.90;;;;;;5095388;28;20042;-83
2023/06/10 09:17:28;;;;;;;6.63;3.40;;;27.80;56.90;;;;;;5095729;28;20031;-83
2023/06/10 09:19:55;;;;;;;7.85;3.65;;;28.00;57.30;;;;;;5095424;28;20502;-84
2023/06/10 09:22:22;;;;;;;4.25;2.95;;;28.10;56.60;;;;;;5094400;28;20039;-83
2023/06/10 09:24:48;;;;;;;5.75;3.22;;;28.20;57.50;;;;;;5093671;28;20024;-83
2023/06/10 09:27:13;;;;;;;7.57;3.30;;;28.30;56.10;;;;;;5093988;28;20486;-84
2023/06/10 09:30:06;;;;;;;9.93;3.10;;;28.30;55.20;;;;;;5094144;28;20054;-83
2023/06/10 09:32:38;;;;;;;;;;;28.40;55.60;;;;;;5091322;28;20036;-83
2023/06/10 09:35:09;;;;;;;4.75;2.60;;;28.40;56.00;;;;;;5094956;28;19904;-84
2023/06/10 09:37:38;;;;;;;6.40;3.05;;;28.50;56.40;;;;;;5094576;28;20097;-83
2023/06/10 09:40:06;;;;;;;4.88;3.15;;;28.50;54.90;;;;;;5095151;28;20059;-84
2023/06/10 09:42:36;;;;;;;5.93;3.33;;;28.60;55.10;;;;;;5094963;28;20146;-84
2023/06/10 09:45:03;;;;;;;6.20;3.00;;;28.60;54.10;;;;;;5094867;28;20032;-83
2023/06/10 09:47:29;;;;;;;5.93;3.15;;;28.70;55.00;;;;;;5093882;28;20028;-84
2023/06/10 09:49:55;;;;;;;4.20;2.75;;;28.80;55.60;;;;;;5095170;28;20456;-83
2023/06/10 09:52:25;;;;;;;5.28;2.65;;;28.90;54.80;;;;;;5093157;28;20028;-83
2023/06/10 09:54:59;;;;;;;3.78;2.58;;;29.00;54.00;;;;;;5093106;28;20056;-83
2023/06/10 09:57:25;;;;;;;4.10;3.05;;;29.00;52.80;;;;;;5092990;28;20055;-82
2023/06/10 09:59:55;;;;;;;6.00;2.95;;;29.10;53.20;;;;;;5093998;28;20024;-84
2023/06/10 10:02:21;;;;;;;5.82;2.80;;;29.10;52.40;;;;;;5093128;28;20043;-84
2023/06/10 10:04:47;;;;;;;6.47;3.28;;;29.10;53.60;;;;;;5094455;28;20028;-84
2023/06/10 10:07:13;;;;;;;5.53;2.95;;;29.30;54.30;;;;;;5094548;28;20028;-84
2023/06/10 10:09:40;;;;;;;3.35;2.92;;;29.40;53.20;;;;;;5094113;28;20476;-84
2023/06/10 10:12:12;;;;;;;4.95;2.72;;;29.50;53.30;;;;;;5094332;28;20032;-84
2023/06/10 10:14:41;;;;;;;5.00;3.20;;;29.70;53.30;;;;;;5094283;28;20035;-83
2023/06/10 10:17:11;;;;;;;3.00;2.70;;;29.70;51.30;;;;;;5093195;28;20053;-84
2023/06/10 10:19:47;;;;;;;4.93;3.00;;;29.60;51.20;;;;;;5093037;28;20024;-84
2023/06/10 10:22:19;;;;;;;4.03;2.78;;;29.70;50.70;;;;;;5094705;28;20457;-83
2023/06/10 10:24:51;;;;;;;3.60;2.72;;;29.70;50.40;;;;;;5094162;28;20410;-83
2023/06/10 10:27:30;;;;;;;4.97;2.90;;;29.80;50.10;;;;;;5093687;28;20051;-84
2023/06/10 10:29:59;;;;;;;7.18;2.75;;;29.80;49.30;;;;;;5094315;28;20107;-84
2023/06/10 10:33:04;;;;;;;6.65;2.80;;;29.90;50.80;;;;;;5092503;28;20032;-83
2023/06/10 10:35:32;;;;;;;6.70;2.65;;;30.00;50.60;;;;;;5030615;28;20029;-83
2023/06/10 10:37:58;;;;;;;8.82;2.80;;;30.10;50.10;;;;;;5079463;28;20119;-84
2023/06/10 10:40:29;;;;;;;6.95;2.60;;;30.20;50.20;;;;;;5093339;28;20043;-84
2023/06/10 10:42:56;;;;;;;8.18;3.22;;;30.30;51.20;;;;;;5094044;28;20131;-83
2023/06/10 10:45:22;;;;;;;6.22;2.70;;;30.40;50.00;;;;;;5093882;28;20055;-84
2023/06/10 10:47:53;;;;;;;4.68;2.63;;;30.50;48.00;;;;;;5092209;28;20032;-84
2023/06/10 10:50:20;;;;;;;5.47;2.72;;;30.50;48.40;;;;;;5094106;28;20020;-83
2023/06/10 10:53:03;;;;;;;6.72;2.67;;;30.60;47.50;;;;;;5092588;28;20476;-84
2023/06/10 10:55:29;;;;;;;3.38;2.22;;;30.60;48.50;;;;;;5075033;28;20093;-83
2023/06/10 10:58:06;;;;;;;3.53;2.35;;;30.60;47.70;;;;;;5092270;28;20372;-83
2023/06/10 11:00:44;;;;;;;6.07;3.20;;;30.60;47.20;;;;;;5093815;28;20020;-83
2023/06/10 11:03:16;;;;;;;4.13;2.40;;;30.50;46.10;;;;;;5076058;28;20058;-83
2023/06/10 11:05:48;;;;;;;;;;;30.50;47.60;;;;;;5094178;28;20092;-84
2023/06/10 11:08:15;;;;;;;4.68;2.65;;;30.50;47.70;;;;;;5093379;28;19912;-84
2023/06/10 11:10:50;;;;;;;4.60;2.70;;;30.70;47.30;;;;;;5093473;28;20028;-83
2023/06/10 11:13:20;;;;;;;3.60;2.10;;;30.80;46.30;;;;;;5093800;28;20104;-83
2023/06/10 11:15:50;;;;;;;3.58;2.78;;;30.90;45.90;;;;;;5092100;28;20389;-84
2023/06/10 11:18:38;;;;;;;4.85;2.60;;;31.00;46.80;;;;;;5093705;28;20457;-83
2023/06/10 11:21:04;;;;;;;5.35;2.42;;;31.10;47.00;;;;;;5092288;28;20032;-83
2023/06/10 11:23:50;;;;;;;9.02;3.33;;;31.10;46.60;;;;;;5093361;28;20020;-83
2023/06/10 11:26:34;;;;;;;5.25;2.90;;;31.20;45.70;;;;;;5092682;28;20034;-84
2023/06/10 11:28:59;;;;;;;4.70;2.20;;;31.20;45.30;;;;;;5092423;28;20456;-84
2023/06/10 11:31:33;;;;;;;4.65;2.30;;;31.30;44.80;;;;;;5093193;28;20036;-83
2023/06/10 11:34:04;;;;;;;3.53;2.50;;;31.30;45.40;;;;;;5092168;28;20024;-82
2023/06/10 11:36:32;;;;;;;4.87;2.50;;;31.20;45.60;;;;;;5093508;28;20024;-83
2023/06/10 11:38:59;;;;;;;7.22;2.40;;;31.30;45.60;;;;;;5093002;28;20032;-83
2023/06/10 11:41:26;;;;;;;5.03;2.80;;;31.40;44.70;;;;;;5093364;28;20032;-82
2023/06/10 11:43:53;;;;;;;6.97;2.88;;;31.50;45.00;;;;;;5075623;28;20032;-83
2023/06/10 11:46:19;;;;;;;3.17;2.38;;;31.50;45.10;;;;;;5076056;28;20028;-83
2023/06/10 11:48:58;;;;;;;5.88;2.88;;;31.60;45.00;;;;;;5096221;28;20385;-84
2023/06/10 11:51:29;;;;;;;6.45;3.10;;;31.70;45.00;;;;;;5097444;28;20032;-83
2023/06/10 11:53:55;;;;;;;6.10;3.65;;;31.80;45.10;;;;;;5095822;28;20138;-83
2023/06/10 11:56:28;;;;;;;2.70;2.47;;;31.80;44.70;;;;;;5079557;28;20032;-83
2023/06/10 11:59:04;;;;;;;4.43;3.10;;;31.80;45.10;;;;;;5096499;28;20031;-84
2023/06/10 12:01:31;;;;;;;4.68;2.97;;;31.80;45.80;;;;;;5097122;28;20408;-83
2023/06/10 12:04:01;;;;;;;6.55;3.05;;;31.90;44.90;;;;;;5096576;28;20062;-83
2023/06/10 12:06:26;;;;;;;3.47;2.70;;;31.90;45.50;;;;;;5095777;28;20047;-83
2023/06/10 12:08:54;;;;;;;4.07;2.75;;;32.00;45.00;;;;;;5095806;28;20465;-83
2023/06/10 12:11:21;;;;;;;5.28;3.08;;;32.00;45.00;;;;;;5096969;28;20025;-83
2023/06/10 12:13:49;;;;;;;4.68;2.72;;;32.10;44.90;;;;;;5095371;28;20028;-82
2023/06/10 12:16:15;;;;;;;4.13;2.70;;;32.20;45.10;;;;;;5096916;28;20024;-83
2023/06/10 12:18:45;;;;;;;5.50;2.70;;;32.30;44.50;;;;;;5097132;28;20400;-82
2023/06/10 12:21:24;;;;;;;5.20;3.10;;;32.40;43.90;;;;;;5095682;28;20032;-79
2023/06/10 12:24:10;;;;;;;5.93;3.05;;;32.30;44.10;;;;;;5096548;28;20024;-83
2023/06/10 12:26:37;;;;;;;5.03;3.13;;;32.20;44.10;;;;;;5078550;28;20032;-83
2023/06/10 12:29:24;;;;;;;3.63;2.65;;;32.20;45.20;;;;;;5095299;28;20028;-83
2023/06/10 12:31:57;;;;;;;3.55;2.53;;;32.30;44.10;;;;;;5096907;28;20107;-83
2023/06/10 12:34:33;;;;;;;4.57;3.03;;;32.20;44.60;;;;;;5078567;28;20392;-83
2023/06/10 12:37:00;;;;;;;5.47;3.10;;;32.20;44.70;;;;;;5096308;28;20149;-84
2023/06/10 12:39:26;;;;;;;4.57;2.72;;;32.20;44.20;;;;;;5096464;28;20024;-82
2023/06/10 12:41:52;;;;;;;4.35;2.78;;;32.20;45.90;;;;;;5096363;28;20043;-81
2023/06/10 12:44:19;;;;;;;4.68;2.30;;;32.30;44.90;;;;;;5096356;28;20025;-82
2023/06/10 12:46:44;;;;;;;7.97;3.15;;;32.40;44.00;;;;;;5095197;28;20057;-83
2023/06/10 12:49:20;;;;;;;3.90;2.75;;;32.50;44.50;;;;;;5096065;28;20031;-83
2023/06/10 12:51:46;;;;;;;5.80;3.10;;;32.40;43.20;;;;;;5095077;28;20063;-83